Time;durP1;ratioP1;P1;durP2;ratioP2;P2;SDS_P1;SDS_P2;PMS_P1;PMS_P2;Temp;Humidity;BMP_temperature;BMP_pressure;BME280_temperature;BME280_humidity;BME280_pressure;Samples;Min_cycle;Max_cycle;Signal;HPM_P1;HPM_P2
2022/10/05 00:01:01;;;;;;;2.47;2.27;;;;;;;;;;4964332;28;20031;-67
2022/10/05 00:03:29;;;;;;;2.47;2.27;;;;;;;;;;4964005;28;20038;-66
2022/10/05 00:05:54;;;;;;;4.53;2.77;;;;;;;;;;4964628;28;20098;-66
2022/10/05 00:08:23;;;;;;;2.77;2.20;;;;;;;;;;4966740;28;20031;-66
2022/10/05 00:10:49;;;;;;;3.33;2.90;;;;;;;;;;4964373;28;20063;-66
2022/10/05 00:13:17;;;;;;;3.83;2.00;;;;;;;;;;4965952;28;20015;-66
2022/10/05 00:15:43;;;;;;;6.33;2.60;;;;;;;;;;4962127;28;20039;-66
2022/10/05 00:18:18;;;;;;;2.23;2.03;;;;;;;;;;4961834;28;20026;-66
2022/10/05 00:20:44;;;;;;;3.33;2.87;;;;;;;;;;4958898;28;20149;-67
2022/10/05 00:23:14;;;;;;;3.00;2.00;;;;;;;;;;4965274;28;20138;-66
2022/10/05 00:25:39;;;;;;;5.17;2.47;;;;;;;;;;4965046;28;20386;-66
2022/10/05 00:28:14;;;;;;;3.20;2.90;;;;;;;;;;4966437;28;20073;-66
2022/10/05 00:30:39;;;;;;;3.28;2.22;;;;;;;;;;4962066;28;20066;-66
2022/10/05 00:33:04;;;;;;;6.87;2.63;;;;;;;;;;4961256;28;20115;-66
2022/10/05 00:35:33;;;;;;;3.47;2.37;;;;;;;;;;4963513;28;21004;-67
2022/10/05 00:37:58;;;;;;;3.37;1.83;;;;;;;;;;4965840;28;20125;-66
2022/10/05 00:40:24;;;;;;;3.77;2.27;;;;;;;;;;4959878;28;20031;-67
2022/10/05 00:42:56;;;;;;;2.47;2.00;;;;;;;;;;4961231;28;20031;-66
2022/10/05 00:45:26;;;;;;;2.87;1.97;;;;;;;;;;4965849;28;20037;-67
2022/10/05 00:48:00;;;;;;;5.20;2.27;;;;;;;;;;4963452;28;20038;-66
2022/10/05 00:50:31;;;;;;;2.92;1.77;;;;;;;;;;4961759;28;20574;-66
2022/10/05 00:53:02;;;;;;;6.43;1.90;;;;;;;;;;4963194;28;20826;-66
2022/10/05 00:55:36;;;;;;;4.87;2.47;;;;;;;;;;4959854;28;20646;-67
2022/10/05 00:58:10;;;;;;;4.47;1.93;;;;;;;;;;4962276;28;20030;-68
2022/10/05 01:00:39;;;;;;;4.23;2.30;;;;;;;;;;4965380;28;20471;-67
2022/10/05 01:03:07;;;;;;;3.87;1.97;;;;;;;;;;4963996;28;20375;-67
2022/10/05 01:05:35;;;;;;;2.40;1.87;;;;;;;;;;4965029;28;20458;-67
2022/10/05 01:08:12;;;;;;;3.23;2.33;;;;;;;;;;4962718;28;20038;-66
2022/10/05 01:10:41;;;;;;;2.57;2.23;;;;;;;;;;4965480;28;20022;-67
2022/10/05 01:13:15;;;;;;;2.40;2.10;;;;;;;;;;4959808;28;20059;-67
2022/10/05 01:15:40;;;;;;;2.87;2.63;;;;;;;;;;4960054;28;20066;-67
2022/10/05 01:18:13;;;;;;;3.30;2.17;;;;;;;;;;4958854;28;20125;-67
2022/10/05 01:21:05;;;;;;;1.73;1.63;;;;;;;;;;4963283;28;20477;-66
2022/10/05 01:23:36;;;;;;;2.33;2.13;;;;;;;;;;4958142;28;20031;-67
2022/10/05 01:26:30;;;;;;;2.80;2.57;;;;;;;;;;4960966;28;20026;-66
2022/10/05 01:29:16;;;;;;;3.77;2.47;;;;;;;;;;4946702;28;20042;-67
2022/10/05 01:31:42;;;;;;;2.10;1.90;;;;;;;;;;4965672;28;20031;-66
2022/10/05 01:34:10;;;;;;;4.33;2.13;;;;;;;;;;4961659;28;20041;-67
2022/10/05 01:36:59;;;;;;;2.93;2.73;;;;;;;;;;4961350;28;20440;-65
2022/10/05 01:39:37;;;;;;;4.47;2.13;;;;;;;;;;4962689;28;20035;-66
2022/10/05 01:42:17;;;;;;;4.83;2.50;;;;;;;;;;4959386;28;20031;-65
2022/10/05 01:44:59;;;;;;;2.53;2.33;;;;;;;;;;4961872;28;20054;-67
2022/10/05 01:47:47;;;;;;;2.07;1.80;;;;;;;;;;4960981;28;20042;-65
2022/10/05 01:50:39;;;;;;;3.13;2.40;;;;;;;;;;4955369;28;20035;-65
2022/10/05 01:53:16;;;;;;;2.60;2.20;;;;;;;;;;4964283;28;20054;-66
2022/10/05 01:55:53;;;;;;;2.97;2.67;;;;;;;;;;4962954;28;20023;-65
2022/10/05 01:58:31;;;;;;;2.23;2.03;;;;;;;;;;4959902;28;20052;-65
2022/10/05 02:01:05;;;;;;;2.17;1.90;;;;;;;;;;4961196;28;20038;-66
2022/10/05 02:03:34;;;;;;;3.97;2.73;;;;;;;;;;4958700;28;20038;-66
2022/10/05 02:06:12;;;;;;;3.10;2.50;;;;;;;;;;4963366;28;20027;-67
2022/10/05 02:08:47;;;;;;;4.63;3.27;;;;;;;;;;4962177;28;20037;-66
2022/10/05 02:11:13;;;;;;;3.87;2.40;;;;;;;;;;4963814;28;20050;-67
2022/10/05 02:13:39;;;;;;;3.90;2.50;;;;;;;;;;4962970;28;20029;-66
2022/10/05 02:16:30;;;;;;;3.87;2.50;;;;;;;;;;4956642;28;20027;-65
2022/10/05 02:18:58;;;;;;;3.00;2.37;;;;;;;;;;4958147;28;20043;-67
2022/10/05 02:21:24;;;;;;;4.73;2.97;;;;;;;;;;4962503;28;20510;-66
2022/10/05 02:23:51;;;;;;;4.17;2.87;;;;;;;;;;4963424;28;20046;-67
2022/10/05 02:26:17;;;;;;;4.43;2.60;;;;;;;;;;4961813;28;20058;-66
2022/10/05 02:28:47;;;;;;;3.90;2.87;;;;;;;;;;4961058;28;20420;-66
2022/10/05 02:31:14;;;;;;;6.80;3.60;;;;;;;;;;4969126;28;20026;-65
2022/10/05 02:33:39;;;;;;;4.93;3.53;;;;;;;;;;4967647;28;20057;-66
2022/10/05 02:36:11;;;;;;;3.83;3.10;;;;;;;;;;4964133;28;20051;-66
2022/10/05 02:38:58;;;;;;;5.03;4.23;;;;;;;;;;4967447;28;20145;-66
2022/10/05 02:41:24;;;;;;;7.13;3.27;;;;;;;;;;4967825;28;20782;-66
2022/10/05 02:43:56;;;;;;;6.50;3.27;;;;;;;;;;4962168;28;20036;-66
2022/10/05 02:46:30;;;;;;;3.53;2.90;;;;;;;;;;4963455;28;20041;-66
2022/10/05 02:49:09;;;;;;;5.27;2.80;;;;;;;;;;4964949;28;20110;-66
2022/10/05 02:51:40;;;;;;;5.57;2.30;;;;;;;;;;4964200;28;20269;-65
2022/10/05 02:54:17;;;;;;;4.30;2.40;;;;;;;;;;4961630;28;20747;-66
2022/10/05 02:56:52;;;;;;;4.90;2.33;;;;;;;;;;4962653;28;20046;-66
2022/10/05 02:59:36;;;;;;;3.50;2.53;;;;;;;;;;4964285;28;20036;-66
2022/10/05 03:02:07;;;;;;;3.13;2.83;;;;;;;;;;4963212;28;20501;-66
2022/10/05 03:04:41;;;;;;;6.87;3.80;;;;;;;;;;4961040;28;20126;-65
2022/10/05 03:07:15;;;;;;;6.97;3.35;;;;;;;;;;4962477;28;20034;-66
2022/10/05 03:09:43;;;;;;;5.27;3.20;;;;;;;;;;4966066;28;20090;-66
2022/10/05 03:12:15;;;;;;;3.90;2.37;;;;;;;;;;4968354;28;20101;-66
2022/10/05 03:14:49;;;;;;;5.60;2.63;;;;;;;;;;4967402;28;20387;-67
2022/10/05 03:17:18;;;;;;;5.35;2.60;;;;;;;;;;4967226;28;20442;-65
2022/10/05 03:19:46;;;;;;;5.07;3.07;;;;;;;;;;4965104;28;20041;-66
2022/10/05 03:22:26;;;;;;;4.53;2.43;;;;;;;;;;4959818;28;20022;-66
2022/10/05 03:24:54;;;;;;;5.00;2.70;;;;;;;;;;4962363;28;20023;-65
2022/10/05 03:27:20;;;;;;;2.70;2.43;;;;;;;;;;4961485;28;20706;-66
2022/10/05 03:29:48;;;;;;;4.27;2.90;;;;;;;;;;4961790;28;20465;-66
2022/10/05 03:32:13;;;;;;;4.17;2.97;;;;;;;;;;4961549;28;20034;-65
2022/10/05 03:34:52;;;;;;;3.43;2.60;;;;;;;;;;4967967;28;20045;-64
2022/10/05 03:37:20;;;;;;;10.67;5.20;;;;;;;;;;4962617;28;20030;-66
2022/10/05 03:39:48;;;;;;;5.30;2.97;;;;;;;;;;4961680;28;20038;-66
2022/10/05 03:42:13;;;;;;;3.37;2.70;;;;;;;;;;4962741;28;20394;-66
2022/10/05 03:44:38;;;;;;;4.73;2.73;;;;;;;;;;4966367;28;20538;-67
2022/10/05 03:47:07;;;;;;;5.80;2.50;;;;;;;;;;4964208;28;20033;-65
2022/10/05 03:49:51;;;;;;;4.60;2.67;;;;;;;;;;4965659;28;20394;-66
2022/10/05 03:52:37;;;;;;;3.93;2.77;;;;;;;;;;4966997;28;20030;-66
2022/10/05 03:55:02;;;;;;;;;;;;;;;;;;4966504;28;20033;-66
2022/10/05 03:57:31;;;;;;;6.13;2.58;;;;;;;;;;4965052;28;19914;-66
2022/10/05 03:59:59;;;;;;;3.67;2.40;;;;;;;;;;4964204;28;20564;-66
2022/10/05 04:02:37;;;;;;;4.83;2.43;;;;;;;;;;4965670;28;20118;-66
2022/10/05 04:05:08;;;;;;;5.53;2.50;;;;;;;;;;4965526;28;20513;-66
2022/10/05 04:07:52;;;;;;;2.33;2.10;;;;;;;;;;4966641;28;20613;-65
2022/10/05 04:10:23;;;;;;;3.50;2.20;;;;;;;;;;4964079;28;20829;-66
2022/10/05 04:13:07;;;;;;;4.03;2.13;;;;;;;;;;4963188;28;20050;-66
2022/10/05 04:15:41;;;;;;;6.33;3.43;;;;;;;;;;4962617;28;20034;-67
2022/10/05 04:18:27;;;;;;;4.33;2.13;;;;;;;;;;4961605;28;20026;-66
2022/10/05 04:20:54;;;;;;;3.37;2.20;;;;;;;;;;4960406;28;20032;-66
2022/10/05 04:23:33;;;;;;;2.97;2.67;;;;;;;;;;4961944;28;20031;-66
2022/10/05 04:26:02;;;;;;;3.33;2.50;;;;;;;;;;4959254;28;20035;-66
2022/10/05 04:28:37;;;;;;;2.87;2.50;;;;;;;;;;4961551;28;20027;-66
2022/10/05 04:31:04;;;;;;;2.90;2.40;;;;;;;;;;4964978;28;20035;-65
2022/10/05 04:33:30;;;;;;;2.90;2.60;;;;;;;;;;4965334;28;20051;-65
2022/10/05 04:36:34;;;;;;;4.77;2.50;;;;;;;;;;4964484;28;20496;-65
2022/10/05 04:39:22;;;;;;;4.47;3.07;;;;;;;;;;4907107;29;20040;-65
2022/10/05 04:42:11;;;;;;;4.13;2.70;;;;;;;;;;4906798;29;20056;-65
2022/10/05 04:44:39;;;;;;;5.33;2.30;;;;;;;;;;4899841;29;20079;-63
2022/10/05 04:47:22;;;;;;;3.53;2.60;;;;;;;;;;4910121;29;20123;-63
2022/10/05 04:49:48;;;;;;;5.70;2.47;;;;;;;;;;4906915;29;20040;-62
2022/10/05 04:52:42;;;;;;;3.90;2.63;;;;;;;;;;4906025;29;20034;-62
2022/10/05 04:55:13;;;;;;;4.73;2.37;;;;;;;;;;4895257;29;20624;-63
2022/10/05 04:57:53;;;;;;;5.37;2.23;;;;;;;;;;4910627;29;20031;-62
2022/10/05 05:00:21;;;;;;;3.87;2.57;;;;;;;;;;4913741;29;20509;-62
2022/10/05 05:03:01;;;;;;;3.27;2.53;;;;;;;;;;4907087;29;20047;-63
2022/10/05 05:05:32;;;;;;;2.60;2.27;;;;;;;;;;4907947;29;20502;-60
2022/10/05 05:07:57;;;;;;;4.70;2.77;;;;;;;;;;4915472;29;20032;-65
2022/10/05 05:10:25;;;;;;;4.17;2.63;;;;;;;;;;4952038;28;20042;-65
2022/10/05 05:12:53;;;;;;;6.47;3.27;;;;;;;;;;4965533;28;20027;-66
2022/10/05 05:15:28;;;;;;;4.67;3.23;;;;;;;;;;4960978;28;20051;-66
2022/10/05 05:18:05;;;;;;;3.70;2.60;;;;;;;;;;4961625;28;20116;-66
2022/10/05 05:20:47;;;;;;;5.00;2.70;;;;;;;;;;4961149;28;20089;-66
2022/10/05 05:23:12;;;;;;;3.53;2.50;;;;;;;;;;4964512;28;20054;-66
2022/10/05 05:25:43;;;;;;;3.97;2.73;;;;;;;;;;4961550;28;20518;-65
2022/10/05 05:28:11;;;;;;;9.83;3.53;;;;;;;;;;4959899;28;20039;-65
2022/10/05 05:30:59;;;;;;;6.03;3.13;;;;;;;;;;4964705;28;20026;-64
2022/10/05 05:33:31;;;;;;;4.30;2.80;;;;;;;;;;4968184;28;20042;-64
2022/10/05 05:36:00;;;;;;;6.80;3.10;;;;;;;;;;4964595;28;20445;-64
2022/10/05 05:38:51;;;;;;;7.03;3.57;;;;;;;;;;4960906;28;20509;-69
2022/10/05 05:41:29;;;;;;;5.13;3.17;;;;;;;;;;4924895;29;20083;-64
2022/10/05 05:44:10;;;;;;;5.83;3.03;;;;;;;;;;4920056;29;20111;-64
2022/10/05 05:46:37;;;;;;;9.23;3.13;;;;;;;;;;4922688;29;20052;-64
2022/10/05 05:49:18;;;;;;;3.37;2.60;;;;;;;;;;4925301;29;20051;-65
2022/10/05 05:52:02;;;;;;;3.47;2.57;;;;;;;;;;4923243;29;20039;-67
2022/10/05 05:54:37;;;;;;;7.87;3.07;;;;;;;;;;4924761;29;20028;-65
2022/10/05 05:57:09;;;;;;;3.80;2.35;;;;;;;;;;4925087;29;20031;-65
2022/10/05 05:59:55;;;;;;;4.93;2.53;;;;;;;;;;4924420;29;20543;-65
2022/10/05 06:02:23;;;;;;;4.03;2.50;;;;;;;;;;4925823;29;20035;-65
2022/10/05 06:04:53;;;;;;;5.00;2.77;;;;;;;;;;4924959;29;20064;-65
2022/10/05 06:07:23;;;;;;;5.17;3.33;;;;;;;;;;4922709;29;20039;-65
2022/10/05 06:09:52;;;;;;;4.13;2.73;;;;;;;;;;4920872;29;20106;-65
2022/10/05 06:12:19;;;;;;;4.60;2.73;;;;;;;;;;4924275;29;20591;-65
2022/10/05 06:14:48;;;;;;;6.80;3.27;;;;;;;;;;4925322;29;20038;-65
2022/10/05 06:17:23;;;;;;;6.37;2.80;;;;;;;;;;4927796;28;20110;-68
2022/10/05 06:19:51;;;;;;;5.80;3.08;;;;;;;;;;4959629;28;20053;-68
2022/10/05 06:22:21;;;;;;;3.97;2.90;;;;;;;;;;4961506;28;20359;-69
2022/10/05 06:25:00;;;;;;;3.77;3.43;;;;;;;;;;4958409;28;20138;-69
2022/10/05 06:27:32;;;;;;;3.50;3.13;;;;;;;;;;4961252;28;20066;-65
2022/10/05 06:29:57;;;;;;;6.40;3.07;;;;;;;;;;4959196;28;20053;-65
2022/10/05 06:32:28;;;;;;;5.83;3.10;;;;;;;;;;4960146;28;20038;-65
2022/10/05 06:35:00;;;;;;;4.93;3.23;;;;;;;;;;4958110;28;20570;-65
2022/10/05 06:37:31;;;;;;;5.23;3.00;;;;;;;;;;4960090;28;20031;-64
2022/10/05 06:40:04;;;;;;;3.55;2.95;;;;;;;;;;4964985;28;20039;-60
2022/10/05 06:42:33;;;;;;;5.05;4.00;;;;;;;;;;4964386;28;20038;-62
2022/10/05 06:45:06;;;;;;;4.97;2.72;;;;;;;;;;4962668;28;20473;-62
2022/10/05 06:47:45;;;;;;;5.75;3.88;;;;;;;;;;4962399;28;20031;-63
2022/10/05 06:50:10;;;;;;;4.10;2.45;;;;;;;;;;4959159;28;20077;-65
2022/10/05 06:52:45;;;;;;;3.20;2.88;;;;;;;;;;4959198;28;20126;-61
2022/10/05 06:55:14;;;;;;;3.65;2.63;;;;;;;;;;4959872;28;20129;-64
2022/10/05 06:57:58;;;;;;;3.55;2.58;;;;;;;;;;4960723;28;20050;-60
2022/10/05 07:00:38;;;;;;;5.32;2.78;;;;;;;;;;4960540;28;20030;-64
2022/10/05 07:03:12;;;;;;;5.47;3.08;;;;;;;;;;4961071;28;20046;-66
2022/10/05 07:05:40;;;;;;;4.70;2.95;;;;;;;;;;4960811;28;20054;-65
2022/10/05 07:08:11;;;;;;;6.47;3.22;;;;;;;;;;4957564;28;20478;-65
2022/10/05 07:10:39;;;;;;;2.92;2.50;;;;;;;;;;4957333;28;20048;-64
2022/10/05 07:13:04;;;;;;;7.30;2.88;;;;;;;;;;4960417;28;20031;-64
2022/10/05 07:15:32;;;;;;;3.85;2.20;;;;;;;;;;4962568;28;20077;-64
2022/10/05 07:18:19;;;;;;;2.65;1.60;;;;;;;;;;4961377;28;20031;-64
2022/10/05 07:20:58;;;;;;;3.30;2.15;;;;;;;;;;4961110;28;20438;-64
2022/10/05 07:23:42;;;;;;;2.67;1.92;;;;;;;;;;4968827;28;20050;-63
2022/10/05 07:26:17;;;;;;;5.30;2.38;;;;;;;;;;4964315;28;20325;-63
2022/10/05 07:29:01;;;;;;;3.83;2.38;;;;;;;;;;4963723;28;20796;-64
2022/10/05 07:31:35;;;;;;;4.15;3.13;;;;;;;;;;4966777;28;20056;-63
2022/10/05 07:34:19;;;;;;;6.15;3.40;;;;;;;;;;4965637;28;20030;-64
2022/10/05 07:39:37;;;;;;;5.43;3.10;;;;;;;;;;4966612;28;20089;-66
2022/10/05 07:42:08;;;;;;;5.20;3.20;;;;;;;;;;4967719;28;20054;-67
2022/10/05 07:44:56;;;;;;;3.08;2.78;;;;;;;;;;4963894;28;20015;-63
2022/10/05 07:47:37;;;;;;;4.53;3.80;;;;;;;;;;4961189;28;20081;-62
2022/10/05 07:50:21;;;;;;;4.35;2.88;;;;;;;;;;4964969;28;20022;-65
2022/10/05 07:52:54;;;;;;;6.63;3.75;;;;;;;;;;4961292;28;20049;-63
2022/10/05 07:55:31;;;;;;;7.47;3.20;;;;;;;;;;4962812;28;20105;-62
2022/10/05 07:58:02;;;;;;;4.75;3.30;;;;;;;;;;4961975;28;20039;-60
2022/10/05 08:00:42;;;;;;;6.35;2.60;;;;;;;;;;4961294;28;20296;-65
2022/10/05 08:03:14;;;;;;;6.97;2.72;;;;;;;;;;4961692;28;20026;-69
2022/10/05 08:05:41;;;;;;;6.25;3.63;;;;;;;;;;4961100;28;20034;-63
2022/10/05 08:08:09;;;;;;;6.50;3.72;;;;;;;;;;4964833;28;20176;-63
2022/10/05 08:10:37;;;;;;;10.07;4.10;;;;;;;;;;4961699;28;20476;-63
2022/10/05 08:13:07;;;;;;;9.57;2.85;;;;;;;;;;4966806;28;20030;-62
2022/10/05 08:15:41;;;;;;;5.75;3.85;;;;;;;;;;4961338;28;20058;-64
2022/10/05 08:18:23;;;;;;;4.25;3.03;;;;;;;;;;4958264;28;20049;-66
2022/10/05 08:20:50;;;;;;;3.97;3.67;;;;;;;;;;4959225;28;20398;-69
2022/10/05 08:23:34;;;;;;;4.05;2.92;;;;;;;;;;4962452;28;20662;-68
2022/10/05 08:26:06;;;;;;;4.05;2.95;;;;;;;;;;4961537;28;20031;-65
2022/10/05 08:28:39;;;;;;;5.57;3.15;;;;;;;;;;4959833;28;20027;-68
2022/10/05 08:31:07;;;;;;;5.38;3.53;;;;;;;;;;4964264;28;20035;-67
2022/10/05 08:33:43;;;;;;;7.28;3.55;;;;;;;;;;4964746;28;20377;-67
2022/10/05 08:36:11;;;;;;;3.67;3.28;;;;;;;;;;4964814;28;20118;-69
2022/10/05 08:38:36;;;;;;;7.55;3.88;;;;;;;;;;4964958;28;20181;-69
2022/10/05 08:41:16;;;;;;;6.68;3.17;;;;;;;;;;4964074;28;20481;-67
2022/10/05 08:43:59;;;;;;;5.68;3.95;;;;;;;;;;4962237;28;20477;-68
2022/10/05 08:46:33;;;;;;;4.53;3.67;;;;;;;;;;4966071;28;20030;-67
2022/10/05 08:49:08;;;;;;;7.75;3.75;;;;;;;;;;4964482;28;20033;-66
2022/10/05 08:51:34;;;;;;;8.23;4.18;;;;;;;;;;4963609;28;20045;-66
2022/10/05 08:54:19;;;;;;;7.10;3.40;;;;;;;;;;4962118;28;20539;-66
2022/10/05 08:57:03;;;;;;;6.15;4.43;;;;;;;;;;4961595;28;20044;-67
2022/10/05 08:59:31;;;;;;;6.18;4.22;;;;;;;;;;4967085;28;20121;-63
2022/10/05 09:02:15;;;;;;;6.43;4.20;;;;;;;;;;4965891;28;20123;-70
2022/10/05 09:04:46;;;;;;;7.88;3.78;;;;;;;;;;4962646;28;20030;-62
2022/10/05 09:07:23;;;;;;;6.18;3.53;;;;;;;;;;4963173;28;20457;-64
2022/10/05 09:09:51;;;;;;;4.05;3.45;;;;;;;;;;4963996;28;20492;-64
2022/10/05 09:12:22;;;;;;;3.85;3.53;;;;;;;;;;4961977;28;20525;-66
2022/10/05 09:14:53;;;;;;;6.57;3.63;;;;;;;;;;4963609;28;20425;-67
2022/10/05 09:17:18;;;;;;;3.72;3.42;;;;;;;;;;4963700;28;20027;-65
2022/10/05 09:19:53;;;;;;;4.05;3.35;;;;;;;;;;4963675;28;20034;-65
2022/10/05 09:22:24;;;;;;;4.07;3.47;;;;;;;;;;4962211;28;20015;-65
2022/10/05 09:24:57;;;;;;;5.30;3.67;;;;;;;;;;4965649;28;20092;-67
2022/10/05 09:27:25;;;;;;;7.32;4.10;;;;;;;;;;4964006;28;20027;-65
2022/10/05 09:30:08;;;;;;;4.38;3.00;;;;;;;;;;4965400;28;20540;-65
2022/10/05 09:32:34;;;;;;;7.95;3.40;;;;;;;;;;4965373;28;20125;-65
2022/10/05 09:35:08;;;;;;;5.40;3.63;;;;;;;;;;4963403;28;20158;-66
2022/10/05 09:37:43;;;;;;;3.58;3.28;;;;;;;;;;4958246;28;20042;-66
2022/10/05 09:40:26;;;;;;;5.25;3.42;;;;;;;;;;4964661;28;20034;-66
2022/10/05 09:42:57;;;;;;;6.25;3.00;;;;;;;;;;4976479;28;20026;-68
2022/10/05 09:45:25;;;;;;;5.68;3.63;;;;;;;;;;4964028;28;20162;-65
2022/10/05 09:47:50;;;;;;;7.13;3.05;;;;;;;;;;4962721;28;20085;-67
2022/10/05 09:50:21;;;;;;;5.65;3.35;;;;;;;;;;4961128;28;20591;-66
2022/10/05 09:53:13;;;;;;;7.70;3.72;;;;;;;;;;4960003;28;20033;-66
2022/10/05 09:55:56;;;;;;;3.85;3.55;;;;;;;;;;4959931;28;20129;-67
2022/10/05 09:58:40;;;;;;;5.53;3.40;;;;;;;;;;4961239;28;20030;-67
2022/10/05 10:01:08;;;;;;;3.60;3.30;;;;;;;;;;4964169;28;20064;-66
2022/10/05 10:03:52;;;;;;;4.15;3.72;;;;;;;;;;4965029;28;20844;-67
2022/10/05 10:06:35;;;;;;;5.68;3.40;;;;;;;;;;4960237;28;20724;-68
2022/10/05 10:09:19;;;;;;;3.35;3.15;;;;;;;;;;4963427;28;20042;-65
2022/10/05 10:12:12;;;;;;;4.95;3.22;;;;;;;;;;4964564;28;20067;-67
2022/10/05 10:14:40;;;;;;;3.70;3.40;;;;;;;;;;4961114;28;20045;-65
2022/10/05 10:17:10;;;;;;;3.35;3.05;;;;;;;;;;4957674;28;20482;-65
2022/10/05 10:19:49;;;;;;;4.07;3.35;;;;;;;;;;4963027;28;20051;-67
2022/10/05 10:22:27;;;;;;;5.40;3.13;;;;;;;;;;4959329;28;20046;-67
2022/10/05 10:25:11;;;;;;;6.05;3.15;;;;;;;;;;4961564;28;20023;-66
2022/10/05 10:27:45;;;;;;;3.60;3.30;;;;;;;;;;4959254;28;20505;-67
2022/10/05 10:30:10;;;;;;;4.30;3.72;;;;;;;;;;4963755;28;20035;-68
2022/10/05 10:32:46;;;;;;;3.65;2.88;;;;;;;;;;4962104;28;20420;-69
2022/10/05 10:35:21;;;;;;;3.42;3.13;;;;;;;;;;4961115;28;20117;-68
2022/10/05 10:37:58;;;;;;;5.32;3.22;;;;;;;;;;4960149;28;20051;-72
2022/10/05 10:40:25;;;;;;;26.58;9.63;;;;;;;;;;4960777;28;20058;-74
2022/10/05 10:43:06;;;;;;;4.43;3.50;;;;;;;;;;4962274;28;20033;-74
2022/10/05 10:46:00;;;;;;;6.60;3.65;;;;;;;;;;4964463;28;20039;-74
2022/10/05 10:48:28;;;;;;;4.82;3.17;;;;;;;;;;4910239;29;20541;-71
2022/10/05 10:50:56;;;;;;;6.10;3.30;;;;;;;;;;4913180;29;20028;-75
2022/10/05 10:53:48;;;;;;;3.53;3.20;;;;;;;;;;4914047;29;20492;-74
2022/10/05 10:56:22;;;;;;;5.68;3.30;;;;;;;;;;4873321;29;20045;-74
2022/10/05 10:58:50;;;;;;;7.78;3.83;;;;;;;;;;4874050;29;20057;-70
2022/10/05 11:01:34;;;;;;;4.97;3.20;;;;;;;;;;4873384;29;20044;-74
2022/10/05 11:04:03;;;;;;;4.00;3.15;;;;;;;;;;4872503;29;20029;-74
2022/10/05 11:06:37;;;;;;;3.53;3.22;;;;;;;;;;4873448;29;20123;-75
2022/10/05 11:09:21;;;;;;;5.15;3.25;;;;;;;;;;4870658;29;20045;-75
2022/10/05 11:12:05;;;;;;;3.63;3.22;;;;;;;;;;4869084;29;20864;-75
2022/10/05 11:14:48;;;;;;;5.50;3.50;;;;;;;;;;4872816;29;20048;-72
2022/10/05 11:17:14;;;;;;;3.50;3.00;;;;;;;;;;4872494;29;20123;-70
2022/10/05 11:19:42;;;;;;;3.58;2.88;;;;;;;;;;4873056;29;20177;-69
2022/10/05 11:22:23;;;;;;;3.67;3.08;;;;;;;;;;4869208;29;20041;-69
2022/10/05 11:25:03;;;;;;;3.80;3.47;;;;;;;;;;4899816;29;20126;-67
2022/10/05 11:27:45;;;;;;;3.88;3.42;;;;;;;;;;4932901;29;20051;-67
2022/10/05 11:30:29;;;;;;;3.92;3.13;;;;;;;;;;4930736;29;20544;-70
2022/10/05 11:33:12;;;;;;;5.57;3.30;;;;;;;;;;4950190;28;20064;-65
2022/10/05 11:35:57;;;;;;;7.25;3.13;;;;;;;;;;4964410;28;20046;-67
2022/10/05 11:38:25;;;;;;;5.63;3.22;;;;;;;;;;4962556;28;20559;-66
2022/10/05 11:41:09;;;;;;;6.00;3.28;;;;;;;;;;4954284;28;20542;-66
2022/10/05 11:43:35;;;;;;;5.03;3.97;;;;;;;;;;4965176;28;20542;-65
2022/10/05 11:46:09;;;;;;;8.02;4.18;;;;;;;;;;4965978;28;20034;-65
2022/10/05 11:51:28;;;;;;;5.07;3.95;;;;;;;;;;4910610;26;20315;-59
2022/10/05 11:54:01;;;;;;;11.30;3.80;;;;;;;;;;4934979;28;20551;-60
2022/10/05 11:56:39;;;;;;;6.20;4.68;;;;;;;;;;4934350;28;20035;-58
2022/10/05 11:59:27;;;;;;;5.93;4.75;;;;;;;;;;4937000;28;20300;-60
2022/10/05 12:02:12;;;;;;;5.82;3.33;;;;;;;;;;4934802;28;20059;-59
2022/10/05 12:04:46;;;;;;;8.75;4.85;;;;;;;;;;4937672;28;20038;-60
2022/10/05 12:07:17;;;;;;;5.50;4.93;;;;;;;;;;4936916;28;20130;-58
2022/10/05 12:10:13;;;;;;;8.98;3.97;;;;;;;;;;4938735;28;20090;-58
2022/10/05 12:12:57;;;;;;;8.13;3.95;;;;;;;;;;4921292;28;20019;-60
2022/10/05 12:15:23;;;;;;;4.90;4.30;;;;;;;;;;4936699;28;20051;-60
2022/10/05 12:17:57;;;;;;;8.32;4.22;;;;;;;;;;4937253;28;20067;-58
2022/10/05 12:20:27;;;;;;;4.25;3.50;;;;;;;;;;4936232;28;20485;-59
2022/10/05 12:23:05;;;;;;;4.93;3.90;;;;;;;;;;4937670;28;20035;-58
2022/10/05 12:25:34;;;;;;;4.90;4.47;;;;;;;;;;4937473;28;20372;-60
2022/10/05 12:28:03;;;;;;;5.90;4.38;;;;;;;;;;4934551;28;20031;-57
2022/10/05 12:30:29;;;;;;;3.90;3.50;;;;;;;;;;4933693;28;20159;-57
2022/10/05 12:32:54;;;;;;;5.38;4.10;;;;;;;;;;4934421;28;20031;-57
2022/10/05 12:35:25;;;;;;;5.45;3.50;;;;;;;;;;4937699;28;20519;-58
2022/10/05 12:37:57;;;;;;;5.10;3.47;;;;;;;;;;4936236;28;20059;-59
2022/10/05 12:40:25;;;;;;;7.32;3.92;;;;;;;;;;4936723;28;20031;-58
2022/10/05 12:42:51;;;;;;;5.30;3.75;;;;;;;;;;4938188;28;20039;-60
2022/10/05 12:45:30;;;;;;;4.75;3.58;;;;;;;;;;4932768;28;20520;-58
2022/10/05 12:48:14;;;;;;;5.55;3.63;;;;;;;;;;4933585;28;20042;-56
2022/10/05 12:50:46;;;;;;;3.90;3.40;;;;;;;;;;4932748;28;20055;-58
2022/10/05 12:53:14;;;;;;;4.20;3.58;;;;;;;;;;4935237;28;20481;-58
2022/10/05 12:55:39;;;;;;;6.10;3.80;;;;;;;;;;4933482;28;20143;-58
2022/10/05 12:58:15;;;;;;;8.25;4.15;;;;;;;;;;4932574;28;20034;-59
2022/10/05 13:01:05;;;;;;;5.25;3.60;;;;;;;;;;4935855;28;20038;-58
2022/10/05 13:03:37;;;;;;;4.47;3.63;;;;;;;;;;4920186;29;20115;-58
2022/10/05 13:06:14;;;;;;;6.03;3.88;;;;;;;;;;4935086;28;20030;-62
2022/10/05 13:08:39;;;;;;;7.50;3.30;;;;;;;;;;4934175;28;20503;-58
2022/10/05 13:11:13;;;;;;;5.32;3.63;;;;;;;;;;4933401;28;20040;-60
2022/10/05 13:13:47;;;;;;;3.95;3.55;;;;;;;;;;4933595;28;20043;-57
2022/10/05 13:16:34;;;;;;;4.03;3.63;;;;;;;;;;4936000;28;20075;-59
2022/10/05 13:19:19;;;;;;;3.50;3.20;;;;;;;;;;4934436;28;20039;-60
2022/10/05 13:21:47;;;;;;;3.97;3.67;;;;;;;;;;4933734;28;20667;-60
2022/10/05 13:24:19;;;;;;;4.30;3.80;;;;;;;;;;4915552;28;20150;-61
2022/10/05 13:26:47;;;;;;;6.43;3.38;;;;;;;;;;4936637;28;20027;-60
2022/10/05 13:29:15;;;;;;;4.53;3.53;;;;;;;;;;4935552;28;20173;-60
2022/10/05 13:32:01;;;;;;;5.95;3.63;;;;;;;;;;4934704;28;20146;-59
2022/10/05 13:34:42;;;;;;;5.82;3.63;;;;;;;;;;4935635;28;20101;-59
2022/10/05 13:37:10;;;;;;;4.15;3.28;;;;;;;;;;4935390;28;20483;-59
2022/10/05 13:39:49;;;;;;;3.47;3.17;;;;;;;;;;4937415;28;20483;-59
2022/10/05 13:42:16;;;;;;;4.20;3.13;;;;;;;;;;4936708;28;20039;-59
2022/10/05 13:44:47;;;;;;;4.60;3.33;;;;;;;;;;4935082;28;20514;-58
2022/10/05 13:47:19;;;;;;;9.73;3.20;;;;;;;;;;4937279;28;20099;-59
2022/10/05 13:49:57;;;;;;;3.63;3.33;;;;;;;;;;4931235;28;20190;-60
2022/10/05 13:52:41;;;;;;;4.07;3.35;;;;;;;;;;4917726;29;20071;-61
2022/10/05 13:55:06;;;;;;;6.07;3.83;;;;;;;;;;4917666;29;20031;-58
2022/10/05 13:57:43;;;;;;;4.90;2.95;;;;;;;;;;4914192;29;20493;-59
2022/10/05 14:00:18;;;;;;;4.93;3.65;;;;;;;;;;4915221;29;20479;-57
2022/10/05 14:02:46;;;;;;;3.65;3.28;;;;;;;;;;4915685;29;20949;-56
2022/10/05 14:05:15;;;;;;;3.40;3.10;;;;;;;;;;4913706;29;20042;-56
2022/10/05 14:07:48;;;;;;;3.78;2.90;;;;;;;;;;4915194;29;20031;-55
2022/10/05 14:10:26;;;;;;;4.70;2.92;;;;;;;;;;4917630;29;20036;-55
2022/10/05 14:12:52;;;;;;;3.50;3.20;;;;;;;;;;4917698;29;20498;-56
2022/10/05 14:15:19;;;;;;;3.97;3.67;;;;;;;;;;4916628;29;20036;-54
2022/10/05 14:17:45;;;;;;;3.58;3.28;;;;;;;;;;4912828;29;20050;-54
2022/10/05 14:20:16;;;;;;;3.33;3.08;;;;;;;;;;4915163;29;20542;-58
2022/10/05 14:22:44;;;;;;;3.65;3.40;;;;;;;;;;4917371;29;20135;-58
2022/10/05 14:25:09;;;;;;;3.25;2.80;;;;;;;;;;4917662;29;20103;-58
2022/10/05 14:27:55;;;;;;;3.30;3.10;;;;;;;;;;4916540;29;20478;-56
2022/10/05 14:30:22;;;;;;;4.28;3.50;;;;;;;;;;4916754;29;20048;-55
2022/10/05 14:32:50;;;;;;;3.05;2.85;;;;;;;;;;4915555;29;20040;-59
2022/10/05 14:35:16;;;;;;;3.88;3.47;;;;;;;;;;4912107;29;20042;-56
2022/10/05 14:37:48;;;;;;;4.65;3.90;;;;;;;;;;4915613;29;20028;-54
2022/10/05 14:40:21;;;;;;;3.25;2.90;;;;;;;;;;4917325;29;20399;-56
2022/10/05 14:42:47;;;;;;;3.33;2.90;;;;;;;;;;4916837;29;20031;-54
2022/10/05 14:45:14;;;;;;;5.20;2.92;;;;;;;;;;4914683;29;20040;-53
2022/10/05 14:47:50;;;;;;;6.45;4.15;;;;;;;;;;4915584;29;20044;-54
2022/10/05 14:50:20;;;;;;;6.05;4.72;;;;;;;;;;4917473;29;20513;-53
2022/10/05 14:52:58;;;;;;;5.25;3.20;;;;;;;;;;4914185;29;20592;-56
2022/10/05 14:55:26;;;;;;;6.65;3.30;;;;;;;;;;4915305;29;20043;-54
2022/10/05 14:58:09;;;;;;;3.13;2.92;;;;;;;;;;4914932;29;20376;-56
2022/10/05 15:00:39;;;;;;;5.70;3.40;;;;;;;;;;4917183;29;20038;-55
2022/10/05 15:03:16;;;;;;;3.38;3.17;;;;;;;;;;4914751;29;20036;-55
2022/10/05 15:05:48;;;;;;;5.22;3.05;;;;;;;;;;4915642;29;20040;-55
2022/10/05 15:08:19;;;;;;;4.45;3.83;;;;;;;;;;4915393;29;20035;-56
2022/10/05 15:10:50;;;;;;;7.95;3.55;;;;;;;;;;4917414;29;20547;-53
2022/10/05 15:13:18;;;;;;;4.22;3.25;;;;;;;;;;4914154;29;20035;-56
2022/10/05 15:15:49;;;;;;;4.88;3.13;;;;;;;;;;4913360;29;20040;-54
2022/10/05 15:18:15;;;;;;;7.10;3.35;;;;;;;;;;4914633;29;20119;-55
2022/10/05 15:20:49;;;;;;;4.65;3.22;;;;;;;;;;4911804;29;20546;-56
2022/10/05 15:23:23;;;;;;;4.75;2.97;;;;;;;;;;4914287;29;20555;-55
2022/10/05 15:26:21;;;;;;;3.60;3.00;;;;;;;;;;4914402;29;20032;-54
2022/10/05 15:29:00;;;;;;;5.63;3.53;;;;;;;;;;4920302;29;20051;-56